createdAt,value
2022-08-17T00:01:56.407Z,63.50
2022-08-17T00:03:58.200Z,63.95
2022-08-17T00:06:13.706Z,64.06
2022-08-17T00:08:19.977Z,65.07
2022-08-17T00:10:22.751Z,65.63
2022-08-17T00:12:43.683Z,65.53
2022-08-17T00:14:45.693Z,64.86
2022-08-17T00:16:56.796Z,64.44
2022-08-17T00:19:07.617Z,64.82
2022-08-17T00:21:11.091Z,64.69
2022-08-17T00:23:15.188Z,64.48
2022-08-17T00:25:19.927Z,64.29
2022-08-17T00:27:21.538Z,64.13
2022-08-17T00:29:23.049Z,64.03
2022-08-17T00:31:24.994Z,63.96
2022-08-17T00:33:29.718Z,63.92
2022-08-17T00:35:31.442Z,64.06
2022-08-17T00:37:32.959Z,64.09
2022-08-17T00:39:34.478Z,63.79
2022-08-17T00:41:36.086Z,63.96
2022-08-17T00:43:47.240Z,63.91
2022-08-17T00:45:49.605Z,63.67
2022-08-17T00:47:51.192Z,63.72
2022-08-17T00:49:53.159Z,64.14
2022-08-17T00:52:10.808Z,64.41
2022-08-17T00:54:16.196Z,64.05
2022-08-17T00:56:23.882Z,64.09
2022-08-17T00:58:30.402Z,63.68
2022-08-17T01:00:42.697Z,63.96
2022-08-17T01:02:46.968Z,63.72
2022-08-17T01:04:52.174Z,63.46
2022-08-17T01:06:55.769Z,63.86
2022-08-17T01:08:59.507Z,64.22
2022-08-17T01:11:02.321Z,64.39
2022-08-17T01:13:05.067Z,64.40
2022-08-17T01:15:07.151Z,64.20
2022-08-17T01:17:09.147Z,64.20
2022-08-17T01:19:17.108Z,64.48
2022-08-17T01:21:41.587Z,64.09
2022-08-17T01:23:43.250Z,63.58
2022-08-17T01:25:45.492Z,63.69
2022-08-17T01:27:50.935Z,63.56
2022-08-17T01:29:58.589Z,63.82
2022-08-17T01:32:03.757Z,63.70
2022-08-17T01:34:09.105Z,64.09
2022-08-17T01:36:10.634Z,64.20
2022-08-17T01:38:12.151Z,64.20
2022-08-17T01:40:22.966Z,64.23
2022-08-17T01:42:33.685Z,64.15
2022-08-17T01:44:35.253Z,63.80
2022-08-17T01:46:39.998Z,63.91
2022-08-17T01:48:42.972Z,63.76
2022-08-17T01:50:46.551Z,63.85
2022-08-17T01:52:54.181Z,64.56
2022-08-17T01:54:56.473Z,68.33
2022-08-17T01:56:57.965Z,65.74
2022-08-17T01:58:59.495Z,66.30
2022-08-17T02:01:01.763Z,65.85
2022-08-17T02:03:04.139Z,65.13
2022-08-17T02:05:07.610Z,64.91
2022-08-17T02:07:09.160Z,64.46
2022-08-17T02:09:16.728Z,64.51
2022-08-17T02:11:20.786Z,64.38
2022-08-17T02:13:22.473Z,64.08
2022-08-17T02:15:24.020Z,64.17
2022-08-17T02:17:26.450Z,64.27
2022-08-17T02:19:27.978Z,64.06
2022-08-17T02:21:29.588Z,63.97
2022-08-17T02:23:34.791Z,64.03
2022-08-17T02:25:38.560Z,63.86
2022-08-17T02:27:40.129Z,63.70
2022-08-17T02:29:41.663Z,63.58
2022-08-17T02:31:43.860Z,63.68
2022-08-17T02:33:45.352Z,63.82
2022-08-17T02:35:58.442Z,63.42
2022-08-17T02:38:01.925Z,63.48
2022-08-17T02:40:04.452Z,63.57
2022-08-17T02:42:06.818Z,63.83
2022-08-17T02:44:08.654Z,63.59
2022-08-17T02:46:10.126Z,63.89
2022-08-17T02:48:11.768Z,63.83
2022-08-17T02:50:16.705Z,63.97
2022-08-17T02:52:18.191Z,63.60
2022-08-17T02:54:42.410Z,63.49
2022-08-17T02:56:44.145Z,63.38
2022-08-17T02:58:46.316Z,63.27
2022-08-17T03:00:48.526Z,63.30
2022-08-17T03:02:51.247Z,63.22
2022-08-17T03:04:52.898Z,63.46
2022-08-17T03:06:54.475Z,63.39
2022-08-17T03:08:55.978Z,64.99
2022-08-17T03:10:57.666Z,65.24
2022-08-17T03:12:59.871Z,64.81
2022-08-17T03:15:11.778Z,64.67
2022-08-17T03:17:17.487Z,64.10
2022-08-17T03:19:19.074Z,63.54
2022-08-17T03:21:21.046Z,63.07
2022-08-17T03:23:25.315Z,63.39
2022-08-17T03:25:30.907Z,63.05
2022-08-17T03:27:32.433Z,63.04
2022-08-17T03:29:33.926Z,62.80
2022-08-17T03:31:37.064Z,62.49
2022-08-17T03:33:38.772Z,63.33
2022-08-17T03:35:40.823Z,63.41
2022-08-17T03:37:42.483Z,62.49
2022-08-17T03:39:44.042Z,62.83
2022-08-17T03:41:45.568Z,63.62
2022-08-17T03:43:47.061Z,64.63
2022-08-17T03:46:27.374Z,64.31
2022-08-17T03:48:47.850Z,63.40
2022-08-17T03:51:12.758Z,62.72
2022-08-17T03:53:36.192Z,62.46
2022-08-17T03:55:56.523Z,62.60
2022-08-17T03:57:58.004Z,62.16
2022-08-17T03:59:59.824Z,61.69
2022-08-17T04:02:09.681Z,61.84
2022-08-17T04:04:12.033Z,61.47
2022-08-17T04:06:14.347Z,61.77
2022-08-17T04:08:15.845Z,61.09
2022-08-17T04:10:17.365Z,61.43
2022-08-17T04:12:21.239Z,61.11
2022-08-17T04:14:23.007Z,60.98
2022-08-17T04:16:25.499Z,60.98
2022-08-17T04:18:27.061Z,60.62
2022-08-17T04:20:29.231Z,61.12
2022-08-17T04:22:34.196Z,61.04
2022-08-17T04:24:36.210Z,61.21
2022-08-17T04:26:53.314Z,61.07
2022-08-17T04:28:58.494Z,60.64
2022-08-17T04:31:00.031Z,61.74
2022-08-17T04:33:08.784Z,62.55
2022-08-17T04:35:10.365Z,62.15
2022-08-17T04:37:11.845Z,61.82
2022-08-17T04:39:13.360Z,62.67
2022-08-17T04:41:34.029Z,63.57
2022-08-17T04:43:37.319Z,63.97
2022-08-17T04:45:41.062Z,65.62
2022-08-17T04:47:57.116Z,65.23
2022-08-17T04:50:01.667Z,65.55
2022-08-17T04:52:04.667Z,65.41
2022-08-17T04:54:13.017Z,65.60
2022-08-17T04:56:18.127Z,63.38
2022-08-17T04:58:21.224Z,62.97
2022-08-17T05:00:25.726Z,61.96
2022-08-17T05:02:27.313Z,60.31
2022-08-17T05:04:34.372Z,60.00
2022-08-17T05:06:36.982Z,59.23
2022-08-17T05:08:38.981Z,59.43
2022-08-17T05:10:45.126Z,59.27
2022-08-17T05:12:48.907Z,59.05
2022-08-17T05:14:50.451Z,59.67
2022-08-17T05:16:51.968Z,59.85
2022-08-17T05:18:53.501Z,59.88
2022-08-17T05:20:55.199Z,60.63
2022-08-17T05:23:07.213Z,60.28
2022-08-17T05:25:09.472Z,59.73
2022-08-17T05:27:12.812Z,60.06
2022-08-17T05:29:20.392Z,59.86
2022-08-17T05:31:22.031Z,59.97
2022-08-17T05:33:28.919Z,60.41
2022-08-17T05:35:32.723Z,60.10
2022-08-17T05:37:34.258Z,60.58
2022-08-17T05:39:35.780Z,60.65
2022-08-17T05:41:37.253Z,60.93
2022-08-17T05:43:41.718Z,61.09
2022-08-17T05:45:55.691Z,61.21
2022-08-17T05:47:57.841Z,60.23
2022-08-17T05:50:00.894Z,60.23
2022-08-17T05:52:19.792Z,59.92
2022-08-17T05:54:51.821Z,59.56
2022-08-17T05:57:34.932Z,58.93
2022-08-17T05:59:48.487Z,62.73
2022-08-17T06:02:09.422Z,59.64
2022-08-17T06:04:26.247Z,60.13
2022-08-17T06:06:36.533Z,60.06
2022-08-17T06:08:51.764Z,61.08
2022-08-17T06:11:06.777Z,60.48
2022-08-17T06:13:15.608Z,64.96
2022-08-17T06:15:54.164Z,63.18
2022-08-17T06:17:59.758Z,60.50
2022-08-17T06:20:10.291Z,60.40
2022-08-17T06:22:16.654Z,60.58
2022-08-17T06:24:24.303Z,60.19
2022-08-17T06:26:39.654Z,62.73
2022-08-17T06:28:50.460Z,60.99
2022-08-17T06:31:02.179Z,62.72
2022-08-17T06:33:16.601Z,60.81
2022-08-17T06:35:32.016Z,62.70
2022-08-17T06:37:51.552Z,61.40
2022-08-17T06:40:09.803Z,62.14
2022-08-17T06:43:06.179Z,59.83
2022-08-17T06:44:54.973Z,59.81
2022-08-17T06:47:28.172Z,63.32
2022-08-17T06:49:40.131Z,60.07
2022-08-17T06:51:48.626Z,61.18
2022-08-17T06:54:02.332Z,58.16
2022-08-17T06:56:10.636Z,58.89
2022-08-17T06:58:15.880Z,57.97
2022-08-17T07:00:22.348Z,60.04
2022-08-17T07:02:55.336Z,60.52
2022-08-17T07:05:01.725Z,58.31
2022-08-17T07:07:26.789Z,58.06
2022-08-17T07:09:31.221Z,58.40
2022-08-17T07:11:43.602Z,57.64
2022-08-17T07:13:57.021Z,58.61
2022-08-17T07:16:13.175Z,60.82
2022-08-17T07:18:14.689Z,59.00
2022-08-17T07:20:20.624Z,57.91
2022-08-17T07:23:00.596Z,57.10
2022-08-17T07:25:09.103Z,57.37
2022-08-17T07:27:32.816Z,56.95
2022-08-17T07:29:43.934Z,58.63
2022-08-17T07:31:45.934Z,61.80
2022-08-17T07:34:02.153Z,63.78
2022-08-17T07:36:04.055Z,59.11
2022-08-17T07:38:26.343Z,58.72
2022-08-17T07:40:36.018Z,61.86
2022-08-17T07:42:40.704Z,59.57
2022-08-17T07:44:54.598Z,62.76
2022-08-17T07:47:15.794Z,63.87
2022-08-17T07:49:22.079Z,63.23
2022-08-17T07:51:39.605Z,59.14
2022-08-17T07:53:41.634Z,58.52
2022-08-17T07:55:44.881Z,59.03
2022-08-17T07:57:56.791Z,60.63
2022-08-17T08:00:01.630Z,57.19
2022-08-17T08:02:28.957Z,56.09
2022-08-17T08:04:59.198Z,56.07
2022-08-17T08:07:01.407Z,56.21
2022-08-17T08:09:03.060Z,56.32
2022-08-17T08:11:15.536Z,56.62
2022-08-17T08:13:26.164Z,55.20
2022-08-17T08:15:36.704Z,60.78
2022-08-17T08:18:00.306Z,59.62
2022-08-17T08:20:42.496Z,58.66
2022-08-17T08:22:52.522Z,55.54
2022-08-17T08:25:07.942Z,57.93
2022-08-17T08:27:18.436Z,55.46
2022-08-17T08:29:55.200Z,54.91
2022-08-17T08:32:25.119Z,54.79
2022-08-17T08:35:00.931Z,54.53
2022-08-17T08:37:16.584Z,53.82
2022-08-17T08:39:29.076Z,54.25
2022-08-17T08:41:50.853Z,57.00
2022-08-17T08:44:07.929Z,56.91
2022-08-17T08:46:44.637Z,54.93
2022-08-17T08:48:59.657Z,57.74
2022-08-17T08:51:14.203Z,57.88
2022-08-17T08:53:40.188Z,60.54
2022-08-17T08:55:51.847Z,60.61
2022-08-17T08:58:07.694Z,60.17
2022-08-17T09:00:35.898Z,57.74
2022-08-17T09:03:08.381Z,53.47
2022-08-17T09:05:14.958Z,53.69
2022-08-17T09:07:23.023Z,57.56
2022-08-17T09:09:39.591Z,58.27
2022-08-17T09:12:08.835Z,53.39
2022-08-17T09:14:32.628Z,53.97
2022-08-17T09:16:50.197Z,56.49
2022-08-17T09:18:59.866Z,54.69
2022-08-17T09:21:10.662Z,53.55
2022-08-17T09:23:22.742Z,54.96
2022-08-17T09:25:31.834Z,55.35
2022-08-17T09:27:48.007Z,53.43
2022-08-17T09:29:57.725Z,53.37
2022-08-17T09:32:03.802Z,56.22
2022-08-17T09:34:10.634Z,55.10
2022-08-17T09:36:20.859Z,53.15
2022-08-17T09:38:43.281Z,54.71
2022-08-17T09:40:57.207Z,54.72
2022-08-17T09:43:01.463Z,52.39
2022-08-17T09:45:15.356Z,54.93
2022-08-17T09:47:47.542Z,54.37
2022-08-17T09:50:00.363Z,52.88
2022-08-17T09:52:31.949Z,53.09
2022-08-17T09:54:39.522Z,52.90
2022-08-17T09:57:28.552Z,52.01
2022-08-17T09:59:46.031Z,51.50
2022-08-17T10:02:25.218Z,51.75
2022-08-17T10:04:30.576Z,51.66
2022-08-17T10:06:43.411Z,50.79
2022-08-17T10:08:57.459Z,49.52
2022-08-17T10:11:07.940Z,49.96
2022-08-17T10:13:25.681Z,49.35
2022-08-17T10:15:37.988Z,46.86
2022-08-17T10:17:45.253Z,46.54
2022-08-17T10:20:06.245Z,47.78
2022-08-17T10:22:42.910Z,49.19
2022-08-17T10:25:23.843Z,48.41
2022-08-17T10:27:44.962Z,47.09
2022-08-17T10:29:52.926Z,47.61
2022-08-17T10:32:09.168Z,47.87
2022-08-17T10:34:22.589Z,48.54
2022-08-17T10:36:37.857Z,46.74
2022-08-17T10:38:59.057Z,43.50
2022-08-17T10:41:27.002Z,42.97
2022-08-17T10:43:34.404Z,43.20
2022-08-17T10:46:30.289Z,43.14
2022-08-17T10:48:36.684Z,46.64
2022-08-17T10:50:57.593Z,47.88
2022-08-17T10:52:59.313Z,45.22
2022-08-17T10:55:13.595Z,45.10
2022-08-17T10:57:23.836Z,43.55
2022-08-17T10:59:37.325Z,42.65
2022-08-17T11:01:38.746Z,42.17
2022-08-17T11:03:54.675Z,41.40
2022-08-17T11:06:25.985Z,39.71
2022-08-17T11:08:30.344Z,40.16
2022-08-17T11:11:09.707Z,40.96
2022-08-17T11:13:23.144Z,42.55
2022-08-17T11:16:04.735Z,44.47
2022-08-17T11:18:20.415Z,46.12
2022-08-17T11:20:54.029Z,45.93
2022-08-17T11:23:25.857Z,44.55
2022-08-17T11:25:40.620Z,41.05
2022-08-17T11:27:43.971Z,38.63
2022-08-17T11:30:02.916Z,41.85
2022-08-17T11:32:15.069Z,44.85
2022-08-17T11:34:23.128Z,47.66
2022-08-17T11:36:56.398Z,44.18
2022-08-17T11:39:35.544Z,41.85
2022-08-17T11:42:19.950Z,38.98
2022-08-17T11:44:30.697Z,37.16
2022-08-17T11:47:09.193Z,37.67
2022-08-17T11:49:41.149Z,36.85
2022-08-17T11:52:01.161Z,36.26
2022-08-17T11:54:40.908Z,41.72
2022-08-17T11:56:48.712Z,38.56
2022-08-17T11:58:50.232Z,44.09
2022-08-17T12:00:56.630Z,39.27
2022-08-17T12:03:31.903Z,39.44
2022-08-17T12:05:35.002Z,40.80
2022-08-17T12:07:42.440Z,39.63
2022-08-17T12:09:47.930Z,38.81
2022-08-17T12:12:04.645Z,48.08
2022-08-17T12:14:45.084Z,47.58
2022-08-17T12:16:58.638Z,48.47
2022-08-17T12:19:03.390Z,45.71
2022-08-17T12:21:07.535Z,47.54
2022-08-17T12:23:24.853Z,40.40
2022-08-17T12:25:46.619Z,43.58
2022-08-17T12:28:05.238Z,43.41
2022-08-17T12:30:14.582Z,43.63
2022-08-17T12:32:20.052Z,44.08
2022-08-17T12:34:40.801Z,37.14
2022-08-17T12:36:42.600Z,37.28
2022-08-17T12:38:53.204Z,37.87
2022-08-17T12:40:58.005Z,44.16
2022-08-17T12:43:07.845Z,45.53
2022-08-17T12:45:29.460Z,38.46
2022-08-17T12:47:31.890Z,40.44
2022-08-17T12:49:39.316Z,41.82
2022-08-17T12:51:46.234Z,48.90
2022-08-17T12:53:55.110Z,38.52
2022-08-17T12:55:58.676Z,40.54
2022-08-17T12:58:01.816Z,42.10
2022-08-17T13:00:21.976Z,47.19
2022-08-17T13:03:13.506Z,43.74
2022-08-17T13:05:23.186Z,37.78
2022-08-17T13:07:36.062Z,37.00
2022-08-17T13:09:40.668Z,34.67
2022-08-17T13:11:55.083Z,47.53
2022-08-17T13:14:09.804Z,36.90
2022-08-17T13:16:14.420Z,41.81
2022-08-17T13:18:34.437Z,47.06
2022-08-17T13:20:37.042Z,37.09
2022-08-17T13:22:39.177Z,37.06
2022-08-17T13:24:53.008Z,43.07
2022-08-17T13:27:07.760Z,44.52
2022-08-17T13:29:33.380Z,47.56
2022-08-17T13:31:50.406Z,47.92
2022-08-17T13:34:19.198Z,51.30
2022-08-17T13:36:30.144Z,41.39
2022-08-17T13:39:16.311Z,37.54
2022-08-17T13:41:33.632Z,39.48
2022-08-17T13:43:49.500Z,41.38
2022-08-17T13:45:52.580Z,37.87
2022-08-17T13:48:16.988Z,36.56
2022-08-17T13:50:21.894Z,44.47
2022-08-17T13:52:41.390Z,37.58
2022-08-17T13:54:51.832Z,41.37
2022-08-17T13:57:23.816Z,40.32
2022-08-17T13:59:48.238Z,43.63
2022-08-17T14:01:57.705Z,50.80
2022-08-17T14:04:01.933Z,50.51
2022-08-17T14:06:05.234Z,43.49
2022-08-17T14:08:07.341Z,50.68
2022-08-17T14:10:17.800Z,49.94
2022-08-17T14:12:22.105Z,50.80
2022-08-17T14:14:24.469Z,37.07
2022-08-17T14:16:25.970Z,39.45
2022-08-17T14:18:31.247Z,39.82
2022-08-17T14:20:49.458Z,47.55
2022-08-17T14:22:53.932Z,50.05
2022-08-17T14:24:55.523Z,49.02
2022-08-17T14:26:59.316Z,42.77
2022-08-17T14:29:00.792Z,46.25
2022-08-17T14:31:02.935Z,37.74
2022-08-17T14:33:05.836Z,44.98
2022-08-17T14:35:09.949Z,51.24
2022-08-17T14:37:12.265Z,42.74
2022-08-17T14:39:15.165Z,44.43
2022-08-17T14:41:22.049Z,45.81
2022-08-17T14:43:24.591Z,48.39
2022-08-17T14:45:29.628Z,43.76
2022-08-17T14:47:36.789Z,47.43
2022-08-17T14:49:38.354Z,50.76
2022-08-17T14:51:44.158Z,51.33
2022-08-17T14:53:46.132Z,45.51
2022-08-17T14:55:50.763Z,47.32
2022-08-17T14:57:52.522Z,41.11
2022-08-17T14:59:55.575Z,41.17
2022-08-17T15:01:58.184Z,42.03
2022-08-17T15:04:00.835Z,39.07
2022-08-17T15:06:02.789Z,47.02
2022-08-17T15:08:05.554Z,49.32
2022-08-17T15:10:08.889Z,41.87
2022-08-17T15:12:16.886Z,49.81
2022-08-17T15:14:18.363Z,46.63
2022-08-17T15:16:20.499Z,52.01
2022-08-17T15:18:22.438Z,50.86
2022-08-17T15:20:27.831Z,50.19
2022-08-17T15:22:29.349Z,42.39
2022-08-17T15:24:30.826Z,43.38
2022-08-17T15:26:32.533Z,47.53
2022-08-17T15:28:34.140Z,43.62
2022-08-17T15:30:36.045Z,44.55
2022-08-17T15:32:40.583Z,48.17
2022-08-17T15:34:42.063Z,49.33
2022-08-17T15:36:49.220Z,51.94
2022-08-17T15:38:51.475Z,52.75
2022-08-17T15:40:53.344Z,52.05
2022-08-17T15:42:55.108Z,52.61
2022-08-17T15:44:57.434Z,45.72
2022-08-17T15:46:59.029Z,48.87
2022-08-17T15:49:00.508Z,49.80
2022-08-17T15:51:02.057Z,47.39
2022-08-17T15:53:04.887Z,42.62
2022-08-17T15:55:10.409Z,45.64
2022-08-17T15:57:11.878Z,48.05
2022-08-17T15:59:13.441Z,48.10
2022-08-17T16:01:42.275Z,51.78
2022-08-17T16:04:01.623Z,53.14
2022-08-17T16:06:02.465Z,53.20
2022-08-17T16:08:04.610Z,53.40
2022-08-17T16:10:08.424Z,53.32
2022-08-17T16:12:19.452Z,53.38
2022-08-17T16:14:20.945Z,53.32
2022-08-17T16:16:23.626Z,53.43
2022-08-17T16:18:28.293Z,43.96
2022-08-17T16:20:30.690Z,43.02
2022-08-17T16:22:36.408Z,41.33
2022-08-17T16:24:47.668Z,42.30
2022-08-17T16:26:59.561Z,46.72
2022-08-17T16:29:07.025Z,45.24
2022-08-17T16:31:08.814Z,46.18
2022-08-17T16:33:11.634Z,48.39
2022-08-17T16:35:18.149Z,50.14
2022-08-17T16:37:19.856Z,50.48
2022-08-17T16:39:22.111Z,52.24
2022-08-17T16:41:42.212Z,50.69
2022-08-17T16:43:45.626Z,51.19
2022-08-17T16:45:51.874Z,51.02
2022-08-17T16:47:54.741Z,58.71
2022-08-17T16:49:56.322Z,54.19
2022-08-17T16:52:02.993Z,52.72
2022-08-17T16:54:06.350Z,52.20
2022-08-17T16:56:07.852Z,53.41
2022-08-17T16:58:09.456Z,53.24
2022-08-17T17:00:13.063Z,54.24
2022-08-17T17:02:15.898Z,54.85
2022-08-17T17:04:19.176Z,56.00
2022-08-17T17:06:58.561Z,56.57
2022-08-17T17:09:04.223Z,58.78
2022-08-17T17:11:31.244Z,59.87
2022-08-17T17:13:40.683Z,60.57
2022-08-17T17:16:05.432Z,59.99
2022-08-17T17:18:12.629Z,58.04
2022-08-17T17:20:28.636Z,59.47
2022-08-17T17:22:41.211Z,58.99
2022-08-17T17:25:19.673Z,57.21
2022-08-17T17:27:39.447Z,56.20
2022-08-17T17:29:54.134Z,53.59
2022-08-17T17:32:17.244Z,50.49
2022-08-17T17:34:20.182Z,52.79
2022-08-17T17:36:25.081Z,58.57
2022-08-17T17:38:29.395Z,58.31
2022-08-17T17:40:40.435Z,58.79
2022-08-17T17:42:44.228Z,58.94
2022-08-17T17:44:49.627Z,58.48
2022-08-17T17:46:56.801Z,58.70
2022-08-17T17:48:58.960Z,58.79
2022-08-17T17:51:15.551Z,58.99
2022-08-17T17:53:50.477Z,58.76
2022-08-17T17:56:34.326Z,58.25
2022-08-17T17:59:00.122Z,59.65
2022-08-17T18:01:25.594Z,58.02
2022-08-17T18:03:46.818Z,59.04
2022-08-17T18:06:10.317Z,60.11
2022-08-17T18:08:31.966Z,60.63
2022-08-17T18:11:23.940Z,60.79
2022-08-17T18:13:41.264Z,58.09
2022-08-17T18:15:52.989Z,60.27
2022-08-17T18:18:16.764Z,58.69
2022-08-17T18:20:36.035Z,60.22
2022-08-17T18:22:45.564Z,55.78
2022-08-17T18:24:55.789Z,58.41
2022-08-17T18:26:59.579Z,60.33
2022-08-17T18:29:02.552Z,57.79
2022-08-17T18:31:17.599Z,57.45
2022-08-17T18:33:26.255Z,56.46
2022-08-17T18:35:30.698Z,59.19
2022-08-17T18:37:51.293Z,59.48
2022-08-17T18:39:53.129Z,59.65
2022-08-17T18:41:58.462Z,61.58
2022-08-17T18:44:09.673Z,61.69
2022-08-17T18:46:31.400Z,61.56
2022-08-17T18:48:53.509Z,62.01
2022-08-17T18:51:02.021Z,62.27
2022-08-17T18:53:33.947Z,62.34
2022-08-17T18:55:35.841Z,62.34
2022-08-17T18:57:49.550Z,62.27
2022-08-17T18:59:51.152Z,62.32
2022-08-17T19:02:27.321Z,62.18
2022-08-17T19:04:56.181Z,62.14
2022-08-17T19:07:09.459Z,62.54
2022-08-17T19:09:32.625Z,62.39
2022-08-17T19:11:35.583Z,62.29
2022-08-17T19:13:39.703Z,62.41
2022-08-17T19:16:14.935Z,62.33
2022-08-17T19:18:24.024Z,62.12
2022-08-17T19:20:35.289Z,61.95
2022-08-17T19:23:17.826Z,62.07
2022-08-17T19:25:25.775Z,62.09
2022-08-17T19:27:41.795Z,61.87
2022-08-17T19:30:01.727Z,61.95
2022-08-17T19:32:08.855Z,61.96
2022-08-17T19:34:14.492Z,62.28
2022-08-17T19:36:21.857Z,62.36
2022-08-17T19:38:50.523Z,62.34
2022-08-17T19:41:16.000Z,62.37
2022-08-17T19:43:30.691Z,62.05
2022-08-17T19:45:47.380Z,62.17
2022-08-17T19:48:05.240Z,62.24
2022-08-17T19:50:31.832Z,62.12
2022-08-17T19:53:00.965Z,61.97
2022-08-17T19:55:22.758Z,62.15
2022-08-17T19:57:48.968Z,61.90
2022-08-17T19:59:56.742Z,61.87
2022-08-17T20:02:04.021Z,62.25
2022-08-17T20:04:32.506Z,62.89
2022-08-17T20:06:38.807Z,62.91
2022-08-17T20:08:58.785Z,62.84
2022-08-17T20:11:08.838Z,62.56
2022-08-17T20:13:17.533Z,62.71
2022-08-17T20:15:37.699Z,62.66
2022-08-17T20:17:44.934Z,62.48
2022-08-17T20:19:56.675Z,62.96
2022-08-17T20:21:58.118Z,62.94
2022-08-17T20:24:22.364Z,63.33
2022-08-17T20:26:44.144Z,65.09
2022-08-17T20:29:37.542Z,65.36
2022-08-17T20:31:48.987Z,67.81
2022-08-17T20:33:50.455Z,68.58
2022-08-17T20:36:13.792Z,66.49
2022-08-17T20:38:43.348Z,64.70
2022-08-17T20:40:54.010Z,63.71
2022-08-17T20:42:57.499Z,63.49
2022-08-17T20:45:05.084Z,63.45
2022-08-17T20:47:17.796Z,63.46
2022-08-17T20:49:45.013Z,63.83
2022-08-17T20:52:01.371Z,64.67
2022-08-17T20:54:25.373Z,64.23
2022-08-17T20:56:48.909Z,64.01
2022-08-17T20:58:50.432Z,63.83
2022-08-17T21:00:58.800Z,63.67
2022-08-17T21:03:21.965Z,64.07
2022-08-17T21:05:34.369Z,65.13
2022-08-17T21:07:43.236Z,64.79
2022-08-17T21:09:45.397Z,64.11
2022-08-17T21:12:05.036Z,63.91
2022-08-17T21:14:51.054Z,67.52
2022-08-17T21:17:29.543Z,70.74
2022-08-17T21:19:44.407Z,67.44
2022-08-17T21:22:07.701Z,65.30
2022-08-17T21:24:19.369Z,64.81
2022-08-17T21:26:50.839Z,64.61
2022-08-17T21:29:30.372Z,64.70
2022-08-17T21:31:54.094Z,64.65
2022-08-17T21:34:25.222Z,64.32
2022-08-17T21:36:27.011Z,64.21
2022-08-17T21:38:38.204Z,64.23
2022-08-17T21:40:45.561Z,63.87
2022-08-17T21:42:55.669Z,64.65
2022-08-17T21:45:31.924Z,70.48
2022-08-17T21:47:34.838Z,68.63
2022-08-17T21:49:37.882Z,66.37
2022-08-17T21:51:49.892Z,65.12
2022-08-17T21:53:56.059Z,64.97
2022-08-17T21:55:57.729Z,64.64
2022-08-17T21:58:13.800Z,64.81
2022-08-17T22:00:28.133Z,64.75
2022-08-17T22:02:36.320Z,64.34
2022-08-17T22:04:40.930Z,63.77
2022-08-17T22:06:52.362Z,63.91
2022-08-17T22:09:05.320Z,64.32
2022-08-17T22:11:06.987Z,63.51
2022-08-17T22:13:19.755Z,63.58
2022-08-17T22:15:21.582Z,63.55
2022-08-17T22:17:26.682Z,63.51
2022-08-17T22:19:28.258Z,63.46
2022-08-17T22:21:29.770Z,63.42
2022-08-17T22:23:54.542Z,62.55
2022-08-17T22:26:00.006Z,62.39
2022-08-17T22:28:04.211Z,62.46
2022-08-17T22:30:18.375Z,62.22
2022-08-17T22:32:32.070Z,62.73
2022-08-17T22:34:33.571Z,62.32
2022-08-17T22:36:38.714Z,63.60
2022-08-17T22:38:43.527Z,62.80
2022-08-17T22:40:51.228Z,62.73
2022-08-17T22:42:53.750Z,62.07
2022-08-17T22:44:55.291Z,62.06
2022-08-17T22:47:11.375Z,61.79
2022-08-17T22:49:22.388Z,62.04
2022-08-17T22:51:28.815Z,62.22
2022-08-17T22:53:48.957Z,62.27
2022-08-17T22:56:15.568Z,62.06
2022-08-17T22:58:38.858Z,61.89
2022-08-17T23:00:46.130Z,62.34
2022-08-17T23:03:10.563Z,62.15
2022-08-17T23:05:16.578Z,62.01
2022-08-17T23:07:19.678Z,62.07
2022-08-17T23:09:21.701Z,61.79
2022-08-17T23:11:36.556Z,62.13
2022-08-17T23:13:49.894Z,61.91
2022-08-17T23:15:51.702Z,62.23
2022-08-17T23:17:53.482Z,62.24
2022-08-17T23:19:55.891Z,62.38
2022-08-17T23:21:58.580Z,62.81
2022-08-17T23:24:00.086Z,62.91
2022-08-17T23:26:01.825Z,62.79
2022-08-17T23:28:06.463Z,63.29
2022-08-17T23:30:10.790Z,63.30
2022-08-17T23:32:15.149Z,70.49
2022-08-17T23:34:18.470Z,74.11
2022-08-17T23:36:20.035Z,76.47
2022-08-17T23:38:22.554Z,78.30
2022-08-17T23:40:24.380Z,79.33
2022-08-17T23:42:25.892Z,80.44
2022-08-17T23:44:28.702Z,80.72
2022-08-17T23:46:30.257Z,80.17
2022-08-17T23:48:35.807Z,77.40
2022-08-17T23:50:38.751Z,77.10
2022-08-17T23:52:42.662Z,72.88
2022-08-17T23:54:47.167Z,71.85
2022-08-17T23:56:48.705Z,69.89
2022-08-17T23:58:51.452Z,68.39
